Flight Track Log - Related Links

Times and Time Zones

All times are in EDT time to prevent confusion due to time zone crossing. See the EJA951 flight status page for this flight to view local times or setup timezone preferences in your user account.

Time Position Orientation Groundspeed Altitude Reporting Facility
EDT Latitude Longitude Course Direction KTS MPH feet Rate Location/Type
Mon 04:44:36 PM 40.8333 -74.0833 255° West 168 193 1,200  Level New York TRACON
Mon 04:45:42 PM 40.8167 -74.1667 255° West 198 228 1,500 952 Climbing New York TRACON
Mon 04:46:42 PM 40.8333 -74.2333 288° West 232 267 3,200 3,200 Climbing New York TRACON
Mon 04:47:42 PM 40.8667 -74.3000 303° West 261 300 7,900 3,400 Climbing New York TRACON
Mon 04:48:42 PM 40.9333 -74.3333 339° North 292 336 10,000 1,526 Climbing New York TRACON
Mon 04:49:36 PM 40.9333 -74.4167 270° West 337 388 10,800 1,417 Climbing New York TRACON
Mon 04:49:54 PM 40.9228 -74.4619 253° West 345 397 11,700 2,615 Climbing New York Center
Mon 04:50:54 PM 40.8839 -74.5697 245° Southwest 345 397 14,200 2,370 Climbing New York Center
Mon 04:51:53 PM 40.8383 -74.6850 242° Southwest 357 411 16,400 1,400 Climbing New York Center
Mon 04:52:54 PM 40.7972 -74.7922 243° Southwest 362 417 17,000 492 Climbing New York Center
Mon 04:53:55 PM 40.7425 -74.9314 243° Southwest 383 441 17,400 1,109 Climbing New York Center
Mon 04:54:53 PM 40.6969 -75.0408 241° Southwest 383 441 19,200 2,700 Climbing New York Center
Mon 04:55:55 PM 40.6489 -75.1528 241° Southwest 371 427 22,800 3,300 Climbing New York Center
Mon 04:56:53 PM 40.6014 -75.2592 240° Southwest 354 407 25,800 2,269 Climbing New York Center
Mon 04:57:54 PM 40.5511 -75.3706 239° Southwest 349 402 27,300 1,488 Climbing New York Center
Mon 04:58:54 PM 40.4942 -75.4950 239° Southwest 367 422 28,800 1,488 Climbing New York Center
Mon 04:59:55 PM 40.4392 -75.6167 239° Southwest 387 445 30,300 1,462 Climbing New York Center
Mon 05:00:53 PM 40.3775 -75.7486 239° Southwest 406 467 31,700 1,462 Climbing New York Center
Mon 05:01:54 PM 40.3156 -75.8775 238° Southwest 418 481 33,200 1,525 Climbing New York Center
Mon 05:02:55 PM 40.2511 -76.0169 239° Southwest 431 496 34,800 989 Climbing New York Center
Mon 05:05:02 PM 40.1303 -76.3050 241° Southwest 435 501 36,300 806 Climbing Washington Center
Mon 05:06:01 PM 40.0711 -76.4481 242° Southwest 441 507 37,300 1,050 Climbing Washington Center
Mon 05:07:02 PM 40.0031 -76.5989 240° Southwest 429 494 38,400 1,041 Climbing Washington Center
Mon 05:08:02 PM 39.9458 -76.7336 241° Southwest 434 499 39,400 814 Climbing Washington Center
Mon 05:09:00 PM 39.8883 -76.8569 239° Southwest 441 507 40,000 303 Climbing Washington Center
Mon 05:10:01 PM 39.8219 -77.0206 242° Southwest 441 507 40,000  Level Washington Center
Mon 05:11:02 PM 39.7575 -77.1678 240° Southwest 441 507 40,000  Level Washington Center
Mon 05:12:00 PM 39.7039 -77.2853 239° Southwest 441 507 40,000  Level Washington Center
Mon 05:13:01 PM 39.6372 -77.4347 240° Southwest 508 585 40,000  Level Washington Center
Mon 05:14:01 PM 39.5722 -77.5836 241° Southwest 492 566 40,000  Level Washington Center
Mon 05:15:02 PM 39.5072 -77.7353 241° Southwest 492 566 40,000  Level Washington Center
Mon 05:16:00 PM 39.4397 -77.8864 240° Southwest 492 566 40,000  Level Washington Center
Mon 05:17:02 PM 39.3700 -78.0372 239° Southwest 492 566 40,000  Level Washington Center
Mon 05:18:00 PM 39.3044 -78.1881 241° Southwest 487 560 40,000  Level Washington Center
Mon 05:19:01 PM 39.2344 -78.3383 239° Southwest 487 560 40,000  Level Washington Center
Mon 05:20:02 PM 39.1661 -78.4883 240° Southwest 487 560 40,000  Level Washington Center
Mon 05:21:00 PM 39.1000 -78.6381 240° Southwest 487 560 40,000  Level Washington Center
Mon 05:22:01 PM 39.0314 -78.7903 240° Southwest 487 560 40,000  Level Washington Center
Mon 05:23:01 PM 38.9539 -78.9550 239° Southwest 494 568 40,000  Level Washington Center
Mon 05:24:02 PM 38.8872 -79.1014 240° Southwest 494 568 40,000  Level Washington Center
Mon 05:25:00 PM 38.8417 -79.2272 245° Southwest 488 562 40,000  Level Washington Center
Mon 05:26:01 PM 38.8022 -79.4250 256° West 476 548 40,000  Level Washington Center
Mon 05:27:01 PM 38.7744 -79.5753 257° West 476 548 40,000  Level Washington Center
Mon 05:28:01 PM 38.7414 -79.7544 257° West 455 524 40,000  Level Washington Center
Mon 05:29:57 PM 38.6822 -80.0650 256° West 472 543 40,000  Level Indianapolis Center
Mon 05:30:59 PM 38.6511 -80.2264 256° West 467 537 40,000  Level Indianapolis Center
Mon 05:32:01 PM 38.6208 -80.3908 257° West 472 543 40,000  Level Indianapolis Center
Mon 05:33:03 PM 38.5894 -80.5542 256° West 471 542 40,000  Level Indianapolis Center
Mon 05:34:05 PM 38.5578 -80.7183 256° West 474 545 40,000  Level Indianapolis Center
Mon 05:35:07 PM 38.5264 -80.8842 256° West 478 550 40,000  Level Indianapolis Center
Mon 05:36:09 PM 38.4956 -81.0839 259° West 477 549 40,000  Level Indianapolis Center
Mon 05:37:11 PM 38.4858 -81.2550 266° West 479 551 40,000  Level Indianapolis Center
Mon 05:38:13 PM 38.4728 -81.4233 264° West 473 544 40,000  Level Indianapolis Center
Mon 05:39:15 PM 38.4617 -81.5956 265° West 478 550 40,000  Level Indianapolis Center
Mon 05:40:17 PM 38.4486 -81.7675 265° West 479 551 40,000  Level Indianapolis Center
Mon 05:41:19 PM 38.4364 -81.9392 265° West 482 555 40,000  Level Indianapolis Center
Mon 05:42:21 PM 38.4231 -82.1081 264° West 479 551 40,000  Level Indianapolis Center
Mon 05:43:23 PM 38.4094 -82.2769 264° West 478 550 40,000  Level Indianapolis Center
Mon 05:44:25 PM 38.3972 -82.4439 265° West 472 543 40,000  Level Indianapolis Center
Mon 05:45:27 PM 38.3806 -82.6375 264° West 469 540 40,000  Level Indianapolis Center
Mon 05:46:29 PM 38.3672 -82.8033 264° West 470 541 40,000  Level Indianapolis Center
Mon 05:47:31 PM 38.3531 -82.9681 264° West 469 540 40,000  Level Indianapolis Center
Mon 05:48:33 PM 38.3394 -83.1322 264° West 468 539 40,000  Level Indianapolis Center
Mon 05:49:35 PM 38.3225 -83.3253 264° West 470 541 40,000  Level Indianapolis Center
Mon 05:50:37 PM 38.3072 -83.4933 263° West 477 549 40,000  Level Indianapolis Center
Mon 05:51:39 PM 38.2914 -83.6606 263° West 477 549 40,000  Level Indianapolis Center
Mon 05:52:41 PM 38.2769 -83.8272 264° West 475 547 40,000  Level Indianapolis Center
Mon 05:53:43 PM 38.2608 -83.9939 263° West 477 549 40,000  Level Indianapolis Center
Mon 05:54:45 PM 38.2428 -84.1922 263° West 483 556 40,000  Level Indianapolis Center
Mon 05:55:47 PM 38.2258 -84.3633 263° West 487 560 40,000  Level Indianapolis Center
Mon 05:56:49 PM 38.2086 -84.5353 263° West 489 563 40,000  Level Indianapolis Center
Mon 05:57:51 PM 38.1922 -84.7053 263° West 487 560 40,000  Level Indianapolis Center
Mon 05:58:53 PM 38.1744 -84.8786 263° West 494 568 40,000  Level Indianapolis Center
Mon 05:59:55 PM 38.1544 -85.0767 263° West 487 560 40,000  Level Indianapolis Center
Mon 06:00:57 PM 38.1389 -85.2453 263° West 482 555 40,000  Level Indianapolis Center
Mon 06:01:59 PM 38.1197 -85.4142 262° West 481 554 40,000  Level Indianapolis Center
Mon 06:03:01 PM 38.1031 -85.5833 263° West 482 555 40,000  Level Indianapolis Center
Mon 06:04:03 PM 38.0903 -85.7531 265° West 484 557 40,000  Level Indianapolis Center
Mon 06:05:05 PM 38.0778 -85.9250 265° West 486 559 40,000  Level Indianapolis Center
Mon 06:06:08 PM 38.0644 -86.0958 264° West 487 560 40,000  Level Indianapolis Center
Mon 06:07:10 PM 38.0525 -86.2672 265° West 485 558 40,000  Level Indianapolis Center
Mon 06:08:12 PM 38.0361 -86.4725 264° West 485 558 40,000  Level Indianapolis Center
Mon 06:09:14 PM 38.0225 -86.6439 264° West 485 558 40,000  Level Indianapolis Center
Mon 06:10:16 PM 38.0083 -86.8172 264° West 488 562 40,000  Level Indianapolis Center
Mon 06:11:18 PM 37.9939 -86.9936 264° West 494 568 40,000  Level Indianapolis Center
Mon 06:12:20 PM 37.9797 -87.1714 264° West 498 573 40,000  Level Indianapolis Center
Mon 06:13:22 PM 37.9642 -87.3494 264° West 501 577 40,000  Level Indianapolis Center
Mon 06:14:24 PM 37.9489 -87.5281 264° West 504 580 40,000  Level Indianapolis Center
Mon 06:15:26 PM 37.9325 -87.7064 263° West 505 581 40,000  Level Indianapolis Center
Mon 06:16:28 PM 37.9158 -87.8850 263° West 508 585 40,000  Level Indianapolis Center
Mon 06:17:09 PM 37.9033 -88.0289 264° West 511 588 40,000  Level Kansas City Center
Mon 06:18:11 PM 37.8864 -88.2086 263° West 511 588 40,000  Level Kansas City Center
Mon 06:19:13 PM 37.8681 -88.3878 263° West 512 589 40,000  Level Kansas City Center
Mon 06:20:15 PM 37.8503 -88.5667 263° West 511 588 40,000  Level Kansas City Center
Mon 06:21:17 PM 37.8350 -88.7417 264° West 514 592 40,000  Level Kansas City Center
Mon 06:22:19 PM 37.8108 -88.9581 262° West 517 595 40,000 -290 Level Kansas City Center
Mon 06:23:21 PM 37.7917 -89.1467 263° West 518 596 39,400 -774 Descending Kansas City Center
Mon 06:24:23 PM 37.7725 -89.3303 263° West 524 603 38,400 -677 Descending Kansas City Center
Mon 06:25:25 PM 37.7522 -89.5056 262° West 527 606 38,000 -194 Descending Kansas City Center
Mon 06:26:27 PM 37.7203 -89.6875 258° West 531 611 38,000  Level Kansas City Center
Mon 06:27:29 PM 37.6833 -89.8781 256° West 541 623 38,000  Level Kansas City Center
Mon 06:28:31 PM 37.6461 -90.0592 256° West 543 625 38,000  Level Kansas City Center
Mon 06:29:33 PM 37.6028 -90.2781 256° West 541 623 38,000  Level Kansas City Center
Mon 06:30:35 PM 37.5672 -90.4597 256° West 538 619 38,000  Level Kansas City Center
Mon 06:31:37 PM 37.5306 -90.6428 256° West 537 618 38,000  Level Kansas City Center
Mon 06:32:39 PM 37.4922 -90.8228 255° West 536 617 38,000  Level Kansas City Center
Mon 06:33:41 PM 37.4569 -91.0033 256° West 533 613 38,000  Level Kansas City Center
Mon 06:34:43 PM 37.4200 -91.1864 256° West 534 615 38,000  Level Kansas City Center
Mon 06:35:44 PM 37.3808 -91.3708 255° West 538 619 38,000  Level Kansas City Center
Mon 06:36:46 PM 37.3347 -91.5906 255° West 539 620 38,000  Level Kansas City Center
Mon 06:37:48 PM 37.2947 -91.7761 255° West 542 624 38,000  Level Kansas City Center
Mon 06:38:50 PM 37.2547 -91.9628 255° West 548 631 38,000  Level Kansas City Center
Mon 06:39:52 PM 37.2161 -92.1467 255° West 545 627 38,000  Level Kansas City Center
Mon 06:40:54 PM 37.1747 -92.3294 254° West 542 624 38,000  Level Kansas City Center
Mon 06:41:56 PM 37.1353 -92.5131 255° West 541 623 38,000  Level Kansas City Center
Mon 06:42:58 PM 37.0939 -92.6956 254° West 541 623 38,000  Level Kansas City Center
Mon 06:44:00 PM 37.0533 -92.8808 255° West 543 625 38,000  Level Kansas City Center
Mon 06:45:02 PM 37.0031 -93.1006 254° West 545 627 38,000  Level Kansas City Center
Mon 06:46:04 PM 36.9619 -93.2839 254° West 545 627 38,000  Level Kansas City Center
Mon 06:47:06 PM 36.9200 -93.4675 254° West 547 629 38,000  Level Kansas City Center
Mon 06:48:08 PM 36.8781 -93.6511 254° West 548 631 38,000  Level Kansas City Center
Mon 06:49:10 PM 36.8336 -93.8469 254° West 548 631 38,000  Level Kansas City Center
Mon 06:50:12 PM 36.7914 -94.0294 254° West 547 629 38,000  Level Kansas City Center
Mon 06:51:14 PM 36.7478 -94.2125 253° West 550 633 38,000  Level Kansas City Center
Mon 06:52:16 PM 36.7050 -94.3953 254° West 549 632 38,000  Level Kansas City Center
Mon 06:53:18 PM 36.6614 -94.5781 253° West 550 633 38,000 -532 Level Kansas City Center
Mon 06:54:20 PM 36.6083 -94.7956 253° West 548 631 36,900 -968 Descending Kansas City Center
Mon 06:55:22 PM 36.5650 -94.9750 253° West 545 627 36,000 -435 Descending Kansas City Center
Mon 06:56:24 PM 36.5244 -95.1406 253° West 540 621 36,000  Level Kansas City Center
Mon 06:57:26 PM 36.4803 -95.3194 253° West 541 623 36,000  Level Kansas City Center
Mon 06:58:28 PM 36.4344 -95.4983 252° West 544 626 36,000  Level Kansas City Center
Mon 06:59:31 PM 36.3800 -95.7144 253° West 546 628 36,000 -672 Level Kansas City Center
Mon 07:00:33 PM 36.3353 -95.8947 253° West 549 632 34,600 -1,403 Descending Kansas City Center
Mon 07:01:35 PM 36.2900 -96.0686 252° West 542 624 33,100 -2,371 Descending Kansas City Center
Mon 07:02:37 PM 36.2464 -96.2406 253° West 532 612 29,700 -3,290 Descending Kansas City Center
Mon 07:03:39 PM 36.2033 -96.4064 252° West 520 598 26,300 -3,484 Descending Kansas City Center
Mon 07:04:41 PM 36.1556 -96.5914 252° West 490 564 22,500 -3,339 Descending Kansas City Center
Mon 07:05:43 PM 36.1192 -96.7397 253° West 458 527 19,400 -2,903 Descending Kansas City Center
Mon 07:06:45 PM 36.0831 -96.8778 252° West 439 505 16,500 -2,710 Descending Kansas City Center
Mon 07:07:47 PM 36.0481 -97.0122 252° West 420 483 13,800 -2,468 Descending Kansas City Center
Mon 07:08:49 PM 36.0172 -97.1292 252° West 376 433 11,400 -1,984 Descending Kansas City Center
Mon 07:09:51 PM 35.9681 -97.2072 232° Southwest 311 358 9,700 -1,694 Descending Kansas City Center
Mon 07:10:53 PM 35.8947 -97.2775 218° Southwest 281 323 7,900 -1,699 Descending Kansas City Center
Mon 07:11:44 PM 35.8378 -97.3342 219° Southwest 271 312 6,500 -1,169 Descending Fort Worth Center
Mon 07:12:51 PM 35.7753 -97.3931 217° Southwest 267 307 5,600 -783 Descending Fort Worth Center
Mon 07:13:39 PM 35.7253 -97.4367 215° Southwest 264 304 5,000 -298 Descending Fort Worth Center
Mon 07:14:52 PM 35.6628 -97.5006 220° Southwest 251 289 5,000  Level Fort Worth Center
Mon 07:15:53 PM 35.6106 -97.5539 220° Southwest 247 284 5,000 -330 Level Fort Worth Center
Mon 07:16:41 PM 35.5708 -97.5844 212° Southwest 192 221 4,400 -843 Descending Fort Worth Center
Mon 07:17:54 PM 35.5125 -97.5922 186° South 167 192 3,300 -844 Descending Fort Worth Center
Mon 07:18:49 PM 35.4686 -97.5919 180° South 164 189 2,600 -724 Descending Fort Worth Center
Mon 07:19:50 PM 35.4353 -97.5919 180° South 122 140 1,900 -689 Descending Fort Worth Center

Login

Don't have an account? Register now (free) for customized features, flight alerts, and more!